Tiempo atmosférico en la estación meteorológica de Berga, Barcelona (690 m.)



Fecha
DESCASC
Temp. máxima en grados centígrados (hora)
DESCASC
Temp. mínima en grados centígrados (hora)
DESCASC
Temp. media en grados centígrados
DESCASC
Racha de viento máxima en m/sg (hora)
DESCASC
Velocidad máxima media en intervalos de 10 minutos(hora)
DESCASC
Precipitaciones diarias en mm
DESCASC
Precipitaciones de 00:00 a 06:00 en mm
DESCASC
Precipitaciones de 06:00 a 12:00 en mm
DESCASC
Precipitaciones de 12:00 a 18:00 en mm
DESCASC
Precipitaciones de 18:00 a 24:00 en mm
DESCASC
14-08-2020 29 (15:00) 17.8 (05:40) 23.4 9.72 (16:10) 5.83 (16:10) 0 0 0 0 0
13-08-2020 30.4 (15:30) 16.9 (07:20) 23.6 11.39 (15:40) 6.39 (14:10) 0 0 0 0 0
12-08-2020 28.3 (13:10) 18.4 (15:30) 23.3 22.22 (15:00) 10.28 (15:00) 7 0 0 7 0
11-08-2020 32.1 (16:20) 19.6 (00:00) 25.8 9.44 (17:40) 5.28 (17:00) 0 0 0 0 0
10-08-2020 31.3 (17:20) 17.8 (00:00) 24.5 9.17 (17:30) 5 (17:30) 0.2 0 0.2 0 0
09-08-2020 34.7 (15:30) 19.2 (00:00) 27 16.11 (17:40) 7.78 (20:20) 3.6 0 0 0 3.6
08-08-2020 34.5 (16:40) 20.8 (00:00) 27.6 7.5 (04:30) 3.89 (04:30) 0 0 0 0 0
07-08-2020 34.4 (15:50) 18.9 (00:00) 26.7 7.5 (14:50) 4.17 (17:50) 0 0 0 0 0
06-08-2020 32.5 (16:30) 18 (00:00) 25.3 7.22 (17:00) 3.89 (15:30) 0 0 0 0 0
05-08-2020 29.5 (17:20) 15.8 (00:00) 22.7 6.67 (14:20) 3.89 (20:00) 0 0 0 0 0
04-08-2020 27.1 (15:50) 15.7 (07:40) 21.4 9.44 (17:10) 5.56 (16:50) 0 0 0 0 0
03-08-2020 26.4 (17:40) 16.2 (08:10) 21.3 7.5 (17:10) 4.17 (17:00) 0 0 0 0 0
02-08-2020 29.5 (15:30) 18.5 (00:00) 24 12.22 (18:00) 8.33 (18:20) 0 0 0 0 0
01-08-2020 34.3 (15:30) 21.5 (00:00) 27.9 7.5 (15:30) 3.89 (14:20) 0 0 0 0 0
31-07-2020 35.4 (17:10) 19.6 (06:50) 27.5 6.94 (17:50) 4.17 (17:50) 0 0 0 0 0
30-07-2020 33.9 (16:40) 19.9 (00:00) 26.9 6.67 (16:40) 3.89 (18:50) 0 0 0 0 0
29-07-2020 32.6 (16:50) 17.9 (00:00) 25.2 6.11 (14:20) 3.06 (02:20) 0 0 0 0 0
28-07-2020 33 (18:00) 20 (00:00) 26.5 6.67 (16:50) 4.72 (16:40) 0 0 0 0 0
27-07-2020 33.2 (16:50) 18.6 (00:00) 25.9 7.5 (18:00) 3.61 (16:30) 0 0 0 0 0
26-07-2020 31.4 (17:20) 18.6 (00:00) 25 6.67 (16:00) 3.61 (17:40) 0 0 0 0 0
25-07-2020 29.6 (18:00) 16.5 (00:00) 23.1 10 (16:00) 6.39 (15:20) 0 0 0 0 0
24-07-2020 29.4 (17:40) 17.2 (00:00) 23.3 11.67 (02:40) 7.5 (16:50) 0.8 0.2 0.6 0 0
23-07-2020 31.1 (14:50) 19.6 (00:00) 25.4 9.17 (15:10) 5 (15:10) 0 0 0 0 0
22-07-2020 31.1 (14:50) 18.2 (00:00) 24.7 7.22 (09:40) 4.44 (09:40) 0 0 0 0 0
21-07-2020 31.1 (17:00) 16.6 (00:00) 23.9 6.11 (16:10) 3.33 (17:20) 0 0 0 0 0
20-07-2020 28.4 (16:10) 17.4 (00:00) 22.9 6.94 (16:10) 3.61 (15:50) 0 0 0 0 0
19-07-2020 30.2 (15:50) 17.1 (00:00) 23.7 6.94 (16:30) 4.44 (18:20) 0 0 0 0 0
18-07-2020 28.3 (18:00) 16.3 (00:00) 22.3 6.94 (18:40) 4.17 (18:40) 0 0 0 0 0
17-07-2020 26.8 (17:20) 17.2 (00:00) 22 7.22 (15:00) 4.17 (16:50) 0 0 0 0 0
16-07-2020 26.4 (17:20) 15.9 (00:00) 21.1 8.06 (15:20) 4.72 (14:30) 0 0 0 0 0

Gráficas

Temp. máximas Temp. mínimas Temp. medias Precipitaciones Rachas de viento máximas Velocidades máximas media en intervalos de 10 minutos

Datos horarios

Fecha y hora oficial Temperatura (ºC) Velocidad del viento (km/h) Dirección del viento Racha (km/h) Dirección de racha Precipitación (mm) Presión (hPa) Tendencia (hPa) Humedad (%)
2020-08-14 23:00:00 19.5 6 Este 18 Este 0 -- -- 80
2020-08-14 22:00:00 20 12 Este 19 Este 0 -- -- 76
2020-08-14 21:00:00 20.3 8 Nordeste 14 Oeste 0 -- -- 78
2020-08-14 20:00:00 22.7 6 Sur 28 Sudeste 0 -- -- 64
2020-08-14 19:00:00 25 10 Este 30 Este 0 -- -- 59
2020-08-14 18:00:00 26.2 5 Este 21 Este 0 -- -- 58
2020-08-14 17:00:00 27.9 8 Noroeste 35 Oeste 0 -- -- 53
2020-08-14 16:00:00 27.9 19 Oeste 32 Sudoeste 0 -- -- 51
2020-08-14 15:00:00 29 18 Sudoeste 33 Sur 0 -- -- 48
2020-08-14 14:00:00 28.9 13 Sudoeste 30 Sudoeste 0 -- -- 54
2020-08-14 13:00:00 26.4 10 Sudoeste 25 Sudoeste 0 -- -- 62
2020-08-14 12:00:00 25.9 9 Sudoeste 18 Sudoeste 0 -- -- 64
2020-08-14 11:00:00 24.4 8 Sudoeste 14 Sudoeste 0 -- -- 69
2020-08-14 10:00:00 21.3 4 Este 10 Este 0 -- -- 75
2020-08-14 09:00:00 18.4 5 Este 10 Este 0 -- -- 79
2020-08-14 08:00:00 17.8 6 Este 13 Este 0 -- -- 80
2020-08-14 07:00:00 17.8 5 Este 10 Este 0 -- -- 80
2020-08-14 06:00:00 18 7 Este 13 Este 0 -- -- 78
2020-08-14 05:00:00 18.3 6 Este 11 Este 0 -- -- 77
2020-08-14 04:00:00 18.6 5 Este 13 Este 0 -- -- 75
2020-08-14 03:00:00 18.6 6 Este 14 Este 0 -- -- 75
2020-08-14 02:00:00 18.5 6 Este 13 Este 0 -- -- 75
2020-08-14 01:00:00 19 6 Este 12 Este 0 -- -- 75
2020-08-14 00:00:00 19.8 6 Este 12 Nordeste 0 -- -- 73
2020-08-13 23:00:00 20.7 4 Este 9 Este 0 -- -- 70
2020-08-13 22:00:00 22.3 4 Este 6 Este 0 -- -- 65
2020-08-13 21:00:00 23.8 4 Sudoeste 7 Sudoeste 0 -- -- 59
2020-08-13 20:00:00 25.5 6 Sudoeste 16 Sudoeste 0 -- -- 55
2020-08-13 19:00:00 26.6 10 Sudoeste 26 Sudoeste 0 -- -- 50
2020-08-13 18:00:00 27.4 10 Sudoeste 21 Sudoeste 0 -- -- 49
2020-08-13 17:00:00 26.8 8 Oeste 32 Sudoeste 0 -- -- 52
2020-08-13 16:00:00 29.6 23 Sudoeste 41 Sudoeste 0 -- -- 38
2020-08-13 15:00:00 29.8 19 Oeste 36 Oeste 0 -- -- 38
2020-08-13 14:00:00 29.2 21 Sudoeste 34 Oeste 0 -- -- 41
2020-08-13 13:00:00 28.3 10 Sudoeste 19 Sudoeste 0 -- -- 45
2020-08-13 12:00:00 26.9 6 Sudoeste 14 Sudoeste 0 -- -- 53
2020-08-13 11:00:00 25.9 7 Oeste 12 Oeste 0 -- -- 58
2020-08-13 10:00:00 22.4 5 Este 13 Nordeste 0 -- -- 66
2020-08-13 09:00:00 19.6 6 Este 20 Nordeste 0 -- -- 74
2020-08-13 08:00:00 18.3 10 Nordeste 22 Nordeste 0 -- -- 75
2020-08-13 07:00:00 17.3 6 Este 17 Nordeste 0 -- -- 79
2020-08-13 06:00:00 18.4 8 Nordeste 21 Nordeste 0 -- -- 75
2020-08-13 05:00:00 18.8 10 Este 22 Este 0 -- -- 74
2020-08-13 04:00:00 18.6 12 Nordeste 20 Nordeste 0 -- -- 77
2020-08-13 03:00:00 18.2 10 Este 18 Nordeste 0 -- -- 82
2020-08-13 02:00:00 18.4 6 Este 10 Este 0 -- -- 84
2020-08-13 01:00:00 18.8 5 Nordeste 14 Este 0 -- -- 84
2020-08-13 00:00:00 19.3 8 Este 14 Este 0 -- -- 81
2020-08-12 23:00:00 19.9 8 Este 12 Este 0 -- -- 83
2020-08-12 22:00:00 21 8 Este 11 Este 0 -- -- 81
2020-08-12 21:00:00 23.1 2 Noroeste 7 Sudoeste 0 -- -- 71
2020-08-12 20:00:00 24.6 4 Sudoeste 10 Oeste 0 -- -- 66
2020-08-12 19:00:00 25.3 8 Sudoeste 12 Sudoeste 0 -- -- 62
2020-08-12 18:00:00 24.9 5 Sudoeste 14 Este 0 -- -- 71
2020-08-12 17:00:00 23 6 Nordeste 22 Nordeste 0 -- -- 79
2020-08-12 16:00:00 19.3 8 Nordeste 21 Noroeste 0.8 -- -- 91
2020-08-12 15:00:00 19 37 Oeste 80 Sudoeste 6.2 -- -- 83
2020-08-12 14:00:00 25.6 6 Noroeste 17 Sudoeste 0 -- -- 50
2020-08-12 13:00:00 28 7 Oeste 14 Oeste 0 -- -- 46
2020-08-12 12:00:00 24.6 10 Este 17 Sudeste 0 -- -- 55
2020-08-12 11:00:00 23 7 Este 13 Este 0 -- -- 60
2020-08-12 10:00:00 21.2 4 Este 10 Nordeste 0 -- -- 71
2020-08-12 09:00:00 21 6 Este 12 Este 0 -- -- 66
2020-08-12 08:00:00 20.6 8 Nordeste 15 Nordeste 0 -- -- 61
2020-08-12 07:00:00 19.9 7 Este 14 Nordeste 0 -- -- 65
2020-08-12 06:00:00 20.6 6 Este 14 Este 0 -- -- 69
2020-08-12 05:00:00 20.8 5 Este 15 Este 0 -- -- 68
2020-08-12 04:00:00 20.9 8 Este 15 Este 0 -- -- 69
2020-08-12 03:00:00 21.1 6 Este 12 Este 0 -- -- 70
2020-08-12 02:00:00 21.9 4 Norte 14 Este 0 -- -- 64
2020-08-12 01:00:00 22.4 8 Este 14 Sudeste 0 -- -- 62
2020-08-12 00:00:00 22.9 4 Este 8 Este 0 -- -- 60
2020-08-11 23:00:00 23.3 4 Oeste 14 Sudoeste 0 -- -- 60
2020-08-11 22:00:00 24.8 8 Sudoeste 13 Sudoeste 0 -- -- 57
2020-08-11 21:00:00 26.6 6 Sudoeste 8 Sudoeste 0 -- -- 54
2020-08-11 20:00:00 28 5 Sur 8 Sur 0 -- -- 49
2020-08-11 19:00:00 28.8 4 Nordeste 19 Sudoeste 0 -- -- 48
2020-08-11 18:00:00 29.2 16 Oeste 34 Sudoeste 0 -- -- 43
2020-08-11 17:00:00 31.5 19 Oeste 30 Oeste 0 -- -- 33
2020-08-11 16:00:00 31.5 9 Sudoeste 20 Sudoeste 0 -- -- 35
2020-08-11 15:00:00 30.7 9 Sudoeste 16 Sudoeste 0 -- -- 37
2020-08-11 14:00:00 29.9 6 Oeste 14 Sudoeste 0 -- -- 41
2020-08-11 13:00:00 28.5 6 Sudoeste 17 Oeste 0 -- -- 46
2020-08-11 12:00:00 26.3 9 Sudoeste 14 Sudoeste 0 -- -- 52
2020-08-11 11:00:00 26.7 6 Sudoeste 11 Sudoeste 0 -- -- 50
2020-08-11 10:00:00 23.4 5 Sudoeste 12 Nordeste 0 -- -- 62
2020-08-11 09:00:00 21.1 6 Este 13 Este 0 -- -- 68
2020-08-11 08:00:00 19.6 7 Este 11 Este 0 -- -- 69
2020-08-11 07:00:00 20.9 3 Este 17 Este 0 -- -- 63
2020-08-11 06:00:00 20.9 13 Este 22 Este 0 -- -- 60
2020-08-11 05:00:00 19.7 7 Este 14 Este 0 -- -- 66
2020-08-11 04:00:00 21.5 8 Nordeste 23 Este 0 -- -- 57
2020-08-11 03:00:00 21.5 12 Este 24 Sudeste 0 -- -- 56
2020-08-11 02:00:00 21.6 6 Este 21 Este 0 -- -- 58
2020-08-11 01:00:00 21.6 10 Nordeste 18 Este 0 -- -- 58
2020-08-11 00:00:00 21.5 6 Este 12 Este 0 -- -- 60
2020-08-10 23:00:00 22.7 5 Este 12 Este 0 -- -- 56
2020-08-10 22:00:00 23.8 5 Este 9 Sudeste 0 -- -- 54
2020-08-10 21:00:00 25.5 5 Este 29 Sudoeste 0 -- -- 48
2020-08-10 20:00:00 27.5 12 Sudoeste 22 Sur 0 -- -- 44
2020-08-10 19:00:00 29.7 5 Sudeste 29 Nordeste 0 -- -- 35
2020-08-10 18:00:00 30.3 7 Nordeste 33 Oeste 0 -- -- 33
2020-08-10 17:00:00 30.7 5 Oeste 13 Oeste 0 -- -- 36
2020-08-10 16:00:00 29.8 7 Sudoeste 17 Oeste 0 -- -- 40
2020-08-10 15:00:00 30.9 5 Sur 15 Sur 0 -- -- 34
2020-08-10 14:00:00 30.7 8 Sudoeste 19 Sur 0 -- -- 32
2020-08-10 13:00:00 30.1 10 Sudoeste 19 Sudoeste 0 -- -- 34
2020-08-10 12:00:00 29.6 7 Sudoeste 16 Sudoeste 0 -- -- 33
2020-08-10 11:00:00 27 6 Oeste 9 Oeste 0 -- -- 46
2020-08-10 10:00:00 23 5 Nordeste 12 Este 0.2 -- -- 63
2020-08-10 09:00:00 19.9 8 Nordeste 17 Este 0 -- -- 67
2020-08-10 08:00:00 18.5 10 Este 18 Este 0 -- -- 69
2020-08-10 07:00:00 18.2 10 Este 21 Este 0 -- -- 71
2020-08-10 06:00:00 17.9 9 Este 21 Sudeste 0 -- -- 74
2020-08-10 05:00:00 17.8 9 Este 17 Este 0 -- -- 77
2020-08-10 04:00:00 18 9 Este 17 Este 0 -- -- 76
2020-08-10 03:00:00 18.7 8 Este 19 Este 0 -- -- 74
2020-08-10 02:00:00 19 9 Este 17 Este 0 -- -- 73
2020-08-10 01:00:00 19.8 5 Nordeste 20 Este 0 -- -- 70
2020-08-10 00:00:00 20.5 9 Este 22 Este 0 -- -- 68
2020-08-09 23:00:00 22.5 12 Este 31 Nordeste 0 -- -- 55
2020-08-09 22:00:00 21.2 10 Este 31 Nordeste 0 -- -- 61
2020-08-09 21:00:00 19.9 18 Nordeste 57 Nordeste 0.2 -- -- 71
2020-08-09 20:00:00 19.3 24 Nordeste 43 Este 2.2 -- -- 76
2020-08-09 19:00:00 21.7 22 Nordeste 56 Norte 1.2 -- -- 61
2020-08-09 18:00:00 23.3 23 Nordeste 58 Nordeste 0 -- -- 58
2020-08-09 17:00:00 27.8 23 Nordeste 40 Nordeste 0 -- -- 41
2020-08-09 16:00:00 32 19 Nordeste 39 Nordeste 0 -- -- 28
2020-08-09 15:00:00 33.5 8 Sudoeste 28 Sudoeste 0 -- -- 34
2020-08-09 14:00:00 33 12 Sudoeste 26 Sudoeste 0 -- -- 37
2020-08-09 13:00:00 32.2 13 Sudoeste 21 Sudoeste 0 -- -- 38
2020-08-09 12:00:00 31.2 6 Sudoeste 12 Sudoeste 0 -- -- 45
2020-08-09 11:00:00 28.9 4 Sudoeste 9 Sudoeste 0 -- -- 53
2020-08-09 10:00:00 26.5 4 Este 12 Nordeste 0 -- -- 53
2020-08-09 09:00:00 23.3 9 Este 15 Este 0 -- -- 60
2020-08-09 08:00:00 21.8 8 Este 14 Nordeste 0 -- -- 62
2020-08-09 07:00:00 22.3 6 Nordeste 16 Este 0 -- -- 58
2020-08-09 06:00:00 23.3 9 Este 22 Este 0 -- -- 54
2020-08-09 05:00:00 24.6 15 Nordeste 24 Nordeste 0 -- -- 49
2020-08-09 04:00:00 24.3 11 Este 22 Este 0 -- -- 53
2020-08-09 03:00:00 24.9 13 Nordeste 19 Nordeste 0 -- -- 52
2020-08-09 02:00:00 24.4 12 Nordeste 26 Sudeste 0 -- -- 58
2020-08-09 01:00:00 24.4 8 Este 13 Nordeste 0 -- -- 58
2020-08-09 00:00:00 24.7 7 Este 14 Nordeste 0 -- -- 59
2020-08-08 23:00:00 25.1 5 Nordeste 12 Nordeste 0 -- -- 59
2020-08-08 22:00:00 25.7 5 Este 8 Este 0 -- -- 57
2020-08-08 21:00:00 26.7 5 Este 10 Este 0 -- -- 53
2020-08-08 20:00:00 28.3 4 Nordeste 14 Este 0 -- -- 48
2020-08-08 19:00:00 29.4 6 Este 16 Nordeste 0 -- -- 45
2020-08-08 18:00:00 32 4 Norte 15 Noroeste 0 -- -- 40
2020-08-08 17:00:00 33.6 9 Sudoeste 22 Sudoeste 0 -- -- 33
2020-08-08 16:00:00 34.1 10 Sudoeste 23 Sudoeste 0 -- -- 35
2020-08-08 15:00:00 33.4 7 Sudoeste 20 Sudoeste 0 -- -- 35
2020-08-08 14:00:00 32.5 11 Sudoeste 21 Sudoeste 0 -- -- 38
2020-08-08 13:00:00 31.1 9 Sudoeste 18 Sudoeste 0 -- -- 45
2020-08-08 12:00:00 29.7 5 Sudoeste 13 Oeste 0 -- -- 48
2020-08-08 11:00:00 28.4 6 Oeste 10 Sudoeste 0 -- -- 51
2020-08-08 10:00:00 24.6 4 Sudoeste 9 Este 0 -- -- 61
2020-08-08 09:00:00 23 4 Nordeste 14 Este 0 -- -- 58
2020-08-08 08:00:00 21.7 9 Este 14 Este 0 -- -- 61
2020-08-08 07:00:00 21.8 6 Este 15 Nordeste 0 -- -- 61
2020-08-08 06:00:00 20.8 6 Nordeste 13 Este 0 -- -- 67
2020-08-08 05:00:00 22.2 8 Norte 27 Nordeste 0 -- -- 61
2020-08-08 04:00:00 21.1 6 Este 13 Este 0 -- -- 68
2020-08-08 03:00:00 21.5 6 Este 10 Este 0 -- -- 68
2020-08-08 02:00:00 22.9 0 Calma 14 Este 0 -- -- 62
2020-08-08 01:00:00 22.9 3 Norte 10 Nordeste 0 -- -- 62
2020-08-08 00:00:00 24 4 Norte 11 Nordeste 0 -- -- 58
2020-08-07 23:00:00 25.2 3 Nordeste 7 Sudoeste 0 -- -- 52
2020-08-07 22:00:00 26.2 3 Sudoeste 10 Sur 0 -- -- 49
2020-08-07 21:00:00 28.1 6 Sudoeste 13 Oeste 0 -- -- 44
2020-08-07 20:00:00 30.4 10 Oeste 19 Sudoeste 0 -- -- 44
2020-08-07 19:00:00 32.5 13 Oeste 22 Sudoeste 0 -- -- 41
2020-08-07 18:00:00 33.4 15 Sudoeste 24 Sudoeste 0 -- -- 37
2020-08-07 17:00:00 33.8 12 Sudoeste 22 Sudoeste 0 -- -- 36
2020-08-07 16:00:00 33.8 11 Sudoeste 23 Sudoeste 0 -- -- 33
2020-08-07 15:00:00 33.9 12 Sudoeste 27 Sur 0 -- -- 34
2020-08-07 14:00:00 32.6 9 Sur 20 Sur 0 -- -- 38
2020-08-07 13:00:00 31 9 Sur 17 Oeste 0 -- -- 42
2020-08-07 12:00:00 29.9 5 Sudoeste 14 Sudoeste 0 -- -- 45
2020-08-07 11:00:00 28.3 6 Sudoeste 14 Sudoeste 0 -- -- 48
2020-08-07 10:00:00 24.5 3 Este 10 Este 0 -- -- 59
2020-08-07 09:00:00 21.3 6 Este 16 Este 0 -- -- 65
2020-08-07 08:00:00 19.5 10 Este 17 Este 0 -- -- 70
2020-08-07 07:00:00 19 6 Nordeste 13 Este 0 -- -- 72
2020-08-07 06:00:00 19.1 8 Este 14 Este 0 -- -- 74
2020-08-07 05:00:00 19.4 7 Este 13 Este 0 -- -- 74
2020-08-07 04:00:00 20 6 Este 12 Este 0 -- -- 72
2020-08-07 03:00:00 21.1 4 Este 15 Nordeste 0 -- -- 68
2020-08-07 02:00:00 21.6 7 Nordeste 14 Nordeste 0 -- -- 66
2020-08-07 01:00:00 22.1 9 Nordeste 14 Norte 0 -- -- 64
2020-08-07 00:00:00 22.3 5 Nordeste 8 Este 0 -- -- 64
2020-08-06 23:00:00 24.2 4 Este 8 Sudoeste 0 -- -- 57
2020-08-06 22:00:00 25.7 4 Sur 7 Oeste 0 -- -- 51
2020-08-06 21:00:00 27 4 Sudoeste 14 Oeste 0 -- -- 49
2020-08-06 20:00:00 29.3 9 Sudoeste 19 Oeste 0 -- -- 44
2020-08-06 19:00:00 30.8 13 Sudoeste 21 Sudoeste 0 -- -- 41
2020-08-06 18:00:00 31.7 12 Sudoeste 24 Sudoeste 0 -- -- 39
2020-08-06 17:00:00 32.2 14 Sudoeste 26 Sudoeste 0 -- -- 35
2020-08-06 16:00:00 32 10 Sur 23 Sudoeste 0 -- -- 38
2020-08-06 15:00:00 31.5 8 Sur 24 Sudoeste 0 -- -- 41
2020-08-06 14:00:00 30.7 8 Sudoeste 24 Sudoeste 0 -- -- 42
2020-08-06 13:00:00 29.6 10 Sudoeste 22 Sudoeste 0 -- -- 44
2020-08-06 12:00:00 27.9 6 Sudoeste 13 Oeste 0 -- -- 53
2020-08-06 11:00:00 25.6 5 Oeste 11 Oeste 0 -- -- 58
2020-08-06 10:00:00 23 2 Sudoeste 7 Sudoeste 0 -- -- 65
2020-08-06 09:00:00 20.1 4 Este 10 Sudeste 0 -- -- 72
2020-08-06 08:00:00 18.6 6 Este 12 Este 0 -- -- 76
2020-08-06 07:00:00 18.3 5 Este 10 Este 0 -- -- 78
2020-08-06 06:00:00 19.7 7 Este 17 Sudeste 0 -- -- 74
2020-08-06 05:00:00 19.9 8 Este 18 Este 0 -- -- 78
2020-08-06 04:00:00 20.1 8 Nordeste 13 Nordeste 0 -- -- 80
2020-08-06 03:00:00 20.8 3 Este 5 Nordeste 0 -- -- 84
2020-08-06 02:00:00 21.3 3 Sudoeste 7 Sudoeste 0 -- -- 82
2020-08-06 01:00:00 21.1 5 Sudoeste 9 Sudoeste 0 -- -- 83
2020-08-06 00:00:00 21.3 6 Sudoeste 10 Oeste 0 -- -- 82
2020-08-05 23:00:00 22.1 7 Sudoeste 14 Sudoeste 0 -- -- 79
2020-08-05 22:00:00 23.1 8 Sudoeste 13 Oeste 0 -- -- 74
2020-08-05 21:00:00 24.3 7 Sudoeste 21 Sudoeste 0 -- -- 68
2020-08-05 20:00:00 26.6 14 Sudoeste 22 Sudoeste 0 -- -- 56
2020-08-05 19:00:00 28.8 12 Sudoeste 24 Sudoeste 0 -- -- 44
2020-08-05 18:00:00 29.2 9 Sur 18 Sudoeste 0 -- -- 37
2020-08-05 17:00:00 29.4 10 Sudoeste 23 Sudoeste 0 -- -- 41
2020-08-05 16:00:00 28.9 10 Sudoeste 22 Sudoeste 0 -- -- 41
2020-08-05 15:00:00 27.8 8 Sur 24 Sudoeste 0 -- -- 45
2020-08-05 14:00:00 26.3 5 Sur 21 Sudoeste 0 -- -- 51
2020-08-05 13:00:00 25.3 8 Sudoeste 18 Sudoeste 0 -- -- 55
2020-08-05 12:00:00 24.6 9 Sudoeste 18 Sudoeste 0 -- -- 58
2020-08-05 11:00:00 22.5 6 Sudoeste 13 Sudoeste 0 -- -- 67
2020-08-05 10:00:00 20.6 4 Este 9 Este 0 -- -- 70
2020-08-05 09:00:00 18.1 6 Este 11 Este 0 -- -- 76
2020-08-05 08:00:00 16.5 3 Este 11 Este 0 -- -- 80
2020-08-05 07:00:00 15.9 5 Este 10 Este 0 -- -- 83
2020-08-05 06:00:00 16.3 5 Este 9 Este 0 -- -- 82
2020-08-05 05:00:00 17.6 2 Este 9 Este 0 -- -- 80
2020-08-05 04:00:00 18.5 3 Nordeste 8 Este 0 -- -- 81
2020-08-05 03:00:00 18.9 4 Este 6 Sudeste 0 -- -- 81
2020-08-05 02:00:00 19.2 4 Sur 6 Sur 0 -- -- 81
2020-08-05 01:00:00 19.3 4 Sudoeste 9 Sudoeste 0 -- -- 79
2020-08-05 00:00:00 19.4 6 Oeste 10 Oeste 0 -- -- 78
2020-08-04 23:00:00 20 5 Sudoeste 10 Oeste 0 -- -- 71
2020-08-04 22:00:00 20.9 6 Oeste 14 Oeste 0 -- -- 66
2020-08-04 21:00:00 22.2 8 Oeste 17 Oeste 0 -- -- 62
2020-08-04 20:00:00 23 11 Sudoeste 22 Sudoeste 0 -- -- 59
2020-08-04 19:00:00 24.4 9 Sudoeste 22 Sudoeste 0 -- -- 52
2020-08-04 18:00:00 25.9 14 Sudoeste 34 Sudoeste 0 -- -- 41
2020-08-04 17:00:00 27 19 Oeste 31 Sudoeste 0 -- -- 38
2020-08-04 16:00:00 26.8 19 Oeste 32 Sudoeste 0 -- -- 37
2020-08-04 15:00:00 27 13 Sudoeste 26 Sudoeste 0 -- -- 43
2020-08-04 14:00:00 26.1 14 Oeste 30 Sudoeste 0 -- -- 42
2020-08-04 13:00:00 25.5 13 Oeste 26 Sudoeste 0 -- -- 44
2020-08-04 12:00:00 24.1 18 Oeste 25 Oeste 0 -- -- 48
2020-08-04 11:00:00 23.4 9 Oeste 17 Sudoeste 0 -- -- 50
2020-08-04 10:00:00 21.2 7 Sur 15 Sudoeste 0 -- -- 51
2020-08-04 09:00:00 17.3 3 Nordeste 16 Este 0 -- -- 63
2020-08-04 08:00:00 16.1 8 Nordeste 16 Este 0 -- -- 65
2020-08-04 07:00:00 16.1 8 Nordeste 16 Nordeste 0 -- -- 74
2020-08-04 06:00:00 17.2 3 Nordeste 8 Nordeste 0 -- -- 80
2020-08-04 05:00:00 18.2 2 Este 6 Nordeste 0 -- -- 81
2020-08-04 04:00:00 18.4 3 Este 6 Este 0 -- -- 85
2020-08-04 03:00:00 18.6 0 Calma 6 Este 0 -- -- 84
2020-08-04 02:00:00 19 4 Sudoeste 6 Sudoeste 0 -- -- 83
2020-08-04 01:00:00 19.5 3 Sudoeste 9 Sudoeste 0 -- -- 80
2020-08-04 00:00:00 20.1 4 Sudoeste 6 Sudoeste 0 -- -- 76
2020-08-03 23:00:00 20.4 4 Oeste 9 Sudoeste 0 -- -- 73
2020-08-03 22:00:00 21.3 5 Oeste 12 Sudeste 0 -- -- 70
2020-08-03 21:00:00 22.3 3 Sudeste 9 Sudeste 0 -- -- 64
2020-08-03 20:00:00 23.3 6 Este 15 Sudeste 0 -- -- 62
2020-08-03 19:00:00 24.6 8 Sudoeste 17 Oeste 0 -- -- 49
2020-08-03 18:00:00 25.4 11 Oeste 27 Sudoeste 0 -- -- 45
2020-08-03 17:00:00 25.6 15 Sudoeste 26 Sudoeste 0 -- -- 45
2020-08-03 16:00:00 25.4 13 Sudoeste 23 Sudoeste 0 -- -- 47
2020-08-03 15:00:00 24.2 5 Sur 20 Sur 0 -- -- 53
2020-08-03 14:00:00 24.3 9 Sudoeste 21 Sudoeste 0 -- -- 53
2020-08-03 13:00:00 23.6 5 Oeste 15 Sudoeste 0 -- -- 56
2020-08-03 12:00:00 20.4 8 Oeste 14 Noroeste 0 -- -- 67
2020-08-03 11:00:00 19.2 5 Sudoeste 12 Sur 0 -- -- 69
2020-08-03 10:00:00 17.9 5 Sudoeste 10 Oeste 0 -- -- 73
2020-08-03 09:00:00 16.6 3 Sur 10 Sur 0 -- -- 75
2020-08-03 08:00:00 16.3 5 Sur 13 Este 0 -- -- 76
2020-08-03 07:00:00 16.6 5 Sudoeste 12 Sudoeste 0 -- -- 74
2020-08-03 06:00:00 17.2 3 Sudeste 11 Sudoeste 0 -- -- 74
2020-08-03 05:00:00 18.3 4 Sudeste 12 Sur 0 -- -- 70
2020-08-03 04:00:00 18.9 2 Nordeste 7 Este 0 -- -- 67
2020-08-03 03:00:00 19.1 5 Este 12 Sudeste 0 -- -- 68
2020-08-03 02:00:00 20.1 6 Sudeste 12 Sudoeste 0 -- -- 72
2020-08-03 01:00:00 21.2 4 Sudoeste 10 Sudoeste 0 -- -- 84
2020-08-03 00:00:00 22.4 6 Sudoeste 12 Sudoeste 0 -- -- 79
2020-08-02 23:00:00 23.1 5 Sudoeste 10 Sudoeste 0 -- -- 74
2020-08-02 22:00:00 23.9 4 Sur 11 Este 0 -- -- 69
2020-08-02 21:00:00 25.2 6 Sudoeste 24 Sudoeste 0 -- -- 61
2020-08-02 20:00:00 26.9 14 Oeste 36 Oeste 0 -- -- 47
2020-08-02 19:00:00 28.1 26 Oeste 41 Oeste 0 -- -- 46
2020-08-02 18:00:00 28.9 28 Oeste 44 Oeste 0 -- -- 45
2020-08-02 17:00:00 29.4 24 Sudoeste 37 Sudoeste 0 -- -- 44
2020-08-02 16:00:00 29.3 24 Sudoeste 37 Sudoeste 0 -- -- 44
2020-08-02 15:00:00 29.2 16 Sudoeste 30 Sudoeste 0 -- -- 48
2020-08-02 14:00:00 27.8 14 Sudoeste 31 Oeste 0 -- -- 51
2020-08-02 13:00:00 26.9 10 Sudoeste 22 Sudoeste 0 -- -- 56
2020-08-02 12:00:00 25.7 8 Sur 18 Sudoeste 0 -- -- 59
2020-08-02 11:00:00 24 7 Oeste 14 Sudoeste 0 -- -- 65
2020-08-02 10:00:00 22 4 Sudoeste 11 Sudoeste 0 -- -- 69
2020-08-02 09:00:00 19.5 5 Sudoeste 8 Sudoeste 0 -- -- 78
2020-08-02 08:00:00 18.5 4 Oeste 9 Sur 0 -- -- 83
2020-08-02 07:00:00 19.2 4 Sur 9 Este 0 -- -- 81
2020-08-02 06:00:00 19.6 2 Este 7 Este 0 -- -- 80
2020-08-02 05:00:00 20.3 2 Este 7 Nordeste 0 -- -- 77
2020-08-02 04:00:00 20.7 4 Este 9 Este 0 -- -- 77
2020-08-02 03:00:00 22 5 Este 7 Este 0 -- -- 73
2020-08-02 02:00:00 22.5 5 Este 11 Este 0 -- -- 71
2020-08-02 01:00:00 24 2 Noroeste 10 Este 0 -- -- 58
2020-08-02 00:00:00 24.9 6 Nordeste 12 Nordeste 0 -- -- 56
2020-08-01 23:00:00 26.3 7 Nordeste 12 Nordeste 0 -- -- 52
2020-08-01 22:00:00 27.3 4 Nordeste 10 Este 0 -- -- 51
2020-08-01 21:00:00 28.9 0 Calma 9 Sur 0 -- -- 40
2020-08-01 20:00:00 31.2 4 Sur 12 Sudoeste 0 -- -- 38
2020-08-01 19:00:00 31.5 7 Sudoeste 15 Sudoeste 0 -- -- 37
2020-08-01 18:00:00 32.1 5 Sur 22 Oeste 0 -- -- 39
2020-08-01 17:00:00 33.4 12 Sudoeste 22 Sur 0 -- -- 37
2020-08-01 16:00:00 33 11 Sudoeste 27 Sudoeste 0 -- -- 40
2020-08-01 15:00:00 34.1 13 Oeste 26 Sudoeste 0 -- -- 39
2020-08-01 14:00:00 33.6 12 Oeste 22 Noroeste 0 -- -- 39
2020-08-01 13:00:00 33.1 11 Sudoeste 21 Sudoeste 0 -- -- 37
2020-08-01 12:00:00 32.5 6 Sudoeste 13 Sudoeste 0 -- -- 40
2020-08-01 11:00:00 30.8 5 Sudoeste 10 Este 0 -- -- 48
2020-08-01 10:00:00 26.8 4 Nordeste 13 Este 0 -- -- 54
2020-08-01 09:00:00 23.5 9 Este 15 Nordeste 0 -- -- 58
2020-08-01 08:00:00 22.1 8 Este 14 Este 0 -- -- 61
2020-08-01 07:00:00 21.7 9 Este 16 Este 0 -- -- 59
2020-08-01 06:00:00 22.2 8 Este 15 Este 0 -- -- 58
2020-08-01 05:00:00 22.4 6 Este 20 Nordeste 0 -- -- 58
2020-08-01 04:00:00 22.3 9 Este 16 Este 0 -- -- 60
2020-08-01 03:00:00 22.6 8 Este 15 Este 0 -- -- 60
2020-08-01 02:00:00 23.7 7 Este 16 Este 0 -- -- 59
2020-08-01 01:00:00 24.5 10 Nordeste 21 Nordeste 0 -- -- 56
2020-08-01 00:00:00 24.6 6 Nordeste 12 Este 0 -- -- 57
2020-07-31 23:00:00 25.7 6 Este 9 Este 0 -- -- 54
2020-07-31 22:00:00 28.1 3 Sur 10 Sudoeste 0 -- -- 45
2020-07-31 21:00:00 29 6 Sudoeste 16 Oeste 0 -- -- 45
2020-07-31 20:00:00 31.5 12 Oeste 21 Sudoeste 0 -- -- 42
2020-07-31 19:00:00 33.7 10 Sudoeste 22 Sudoeste 0 -- -- 39
2020-07-31 18:00:00 34.9 12 Sudoeste 25 Sudoeste 0 -- -- 32
2020-07-31 17:00:00 35.3 10 Sudoeste 22 Sudoeste 0 -- -- 30
2020-07-31 16:00:00 35.2 12 Sudoeste 21 Sudoeste 0 -- -- 30
2020-07-31 15:00:00 34.4 8 Sudoeste 19 Sudoeste 0 -- -- 30
2020-07-31 14:00:00 33.6 10 Sudoeste 21 Oeste 0 -- -- 32
2020-07-31 13:00:00 32.5 8 Sudoeste 16 Sudoeste 0 -- -- 32
2020-07-31 12:00:00 30.8 7 Sudoeste 12 Sudoeste 0 -- -- 36
2020-07-31 11:00:00 29.8 6 Sudoeste 10 Sudoeste 0 -- -- 47
2020-07-31 10:00:00 26.2 4 Nordeste 17 Este 0 -- -- 50
2020-07-31 09:00:00 23.4 12 Nordeste 19 Este 0 -- -- 51
2020-07-31 08:00:00 21.5 9 Este 19 Este 0 -- -- 56
2020-07-31 07:00:00 19.6 12 Este 21 Este 0 -- -- 65
2020-07-31 06:00:00 21.2 3 Oeste 15 Este 0 -- -- 58
2020-07-31 05:00:00 21.7 10 Nordeste 24 Este 0 -- -- 58
2020-07-31 04:00:00 22.4 6 Nordeste 23 Nordeste 0 -- -- 57
2020-07-31 03:00:00 22.4 10 Nordeste 19 Nordeste 0 -- -- 58
2020-07-31 02:00:00 21.9 8 Este 12 Este 0 -- -- 63
2020-07-31 01:00:00 23.1 5 Nordeste 18 Nordeste 0 -- -- 58
2020-07-31 00:00:00 23.8 9 Este 18 Nordeste 0 -- -- 55
2020-07-30 23:00:00 25.3 4 Nordeste 8 Este 0 -- -- 50
2020-07-30 22:00:00 26.6 3 Noroeste 10 Sudoeste 0 -- -- 47
2020-07-30 21:00:00 27.9 9 Oeste 17 Sudoeste 0 -- -- 43
2020-07-30 20:00:00 30.6 12 Oeste 22 Sudoeste 0 -- -- 39
2020-07-30 19:00:00 32.9 12 Sudoeste 21 Sudoeste 0 -- -- 35
2020-07-30 18:00:00 33.8 9 Sudoeste 19 Sudoeste 0 -- -- 31
2020-07-30 17:00:00 33.8 8 Sudoeste 24 Oeste 0 -- -- 31
2020-07-30 16:00:00 33.6 9 Sudoeste 23 Sudoeste 0 -- -- 31
2020-07-30 15:00:00 33.2 12 Sudoeste 22 Sudoeste 0 -- -- 33
2020-07-30 14:00:00 32.6 8 Sudoeste 19 Sudoeste 0 -- -- 34
2020-07-30 13:00:00 31.5 7 Sur 16 Sur 0 -- -- 38
2020-07-30 12:00:00 30.2 8 Sudoeste 15 Sudoeste 0 -- -- 44
2020-07-30 11:00:00 28.2 6 Sudoeste 9 Sudeste 0 -- -- 49
2020-07-30 10:00:00 24.6 5 Este 12 Este 0 -- -- 59
2020-07-30 09:00:00 21.5 7 Este 12 Este 0 -- -- 66
2020-07-30 08:00:00 20.6 7 Este 15 Este 0 -- -- 64
2020-07-30 07:00:00 20.1 8 Este 17 Este 0 -- -- 66
2020-07-30 06:00:00 20.1 9 Este 15 Este 0 -- -- 67
2020-07-30 05:00:00 20.4 6 Nordeste 15 Nordeste 0 -- -- 69
2020-07-30 04:00:00 20.7 6 Este 14 Este 0 -- -- 70
2020-07-30 03:00:00 20.7 7 Este 18 Este 0 -- -- 72
2020-07-30 02:00:00 21.7 4 Nordeste 12 Este 0 -- -- 71
2020-07-30 01:00:00 23.4 9 Nordeste 16 Nordeste 0 -- -- 64
2020-07-30 00:00:00 23.5 7 Este 11 Este 0 -- -- 65
2020-07-29 23:00:00 24.9 4 Nordeste 8 Este 0 -- -- 62
2020-07-29 22:00:00 26.9 0 Calma 6 Sudoeste 0 -- -- 55
2020-07-29 21:00:00 28 5 Sudoeste 12 Sudoeste 0 -- -- 51
2020-07-29 20:00:00 30.1 8 Sudoeste 18 Oeste 0 -- -- 47
2020-07-29 19:00:00 31.6 10 Sudoeste 18 Sudoeste 0 -- -- 42
2020-07-29 18:00:00 32.6 8 Sudoeste 19 Sudoeste 0 -- -- 36
2020-07-29 17:00:00 32.6 9 Sudoeste 17 Sudoeste 0 -- -- 36
2020-07-29 16:00:00 32.3 11 Sudoeste 19 Sudoeste 0 -- -- 40
2020-07-29 15:00:00 31.5 9 Sudoeste 22 Sudoeste 0 -- -- 42
2020-07-29 14:00:00 30.6 8 Sudoeste 19 Sudoeste 0 -- -- 45
2020-07-29 13:00:00 29.6 7 Sudoeste 17 Oeste 0 -- -- 49
2020-07-29 12:00:00 28.1 9 Sudoeste 19 Sudoeste 0 -- -- 51
2020-07-29 11:00:00 26.8 8 Sudoeste 13 Sudoeste 0 -- -- 53
2020-07-29 10:00:00 23.8 4 Este 10 Este 0 -- -- 61
2020-07-29 09:00:00 20.7 5 Este 12 Este 0 -- -- 67
2020-07-29 08:00:00 18.4 6 Nordeste 12 Este 0 -- -- 76
2020-07-29 07:00:00 18.1 7 Este 11 Este 0 -- -- 76
2020-07-29 06:00:00 18.5 7 Este 10 Este 0 -- -- 76
2020-07-29 05:00:00 20 4 Nordeste 10 Este 0 -- -- 69
2020-07-29 04:00:00 21 8 Este 13 Este 0 -- -- 65
2020-07-29 03:00:00 21.6 8 Este 18 Nordeste 0 -- -- 65
2020-07-29 02:00:00 22.7 10 Nordeste 17 Nordeste 0 -- -- 62
2020-07-29 01:00:00 22.5 7 Este 13 Nordeste 0 -- -- 66
2020-07-29 00:00:00 23.6 5 Este 9 Nordeste 0 -- -- 62
2020-07-28 23:00:00 24.5 6 Este 10 Nordeste 0 -- -- 62
2020-07-28 22:00:00 26.5 4 Este 9 Sudoeste 0 -- -- 56
2020-07-28 21:00:00 28.1 4 Sudoeste 13 Sudoeste 0 -- -- 52
2020-07-28 20:00:00 30.2 9 Sudoeste 22 Sudoeste 0 -- -- 46
2020-07-28 19:00:00 31.9 13 Sudoeste 21 Sudoeste 0 -- -- 41
2020-07-28 18:00:00 33 8 Sudoeste 20 Sudoeste 0 -- -- 34
2020-07-28 17:00:00 32.8 12 Sudoeste 24 Sudoeste 0 -- -- 35
2020-07-28 16:00:00 32.7 9 Sudoeste 21 Sudoeste 0 -- -- 33
2020-07-28 15:00:00 32.1 10 Sudoeste 19 Sudoeste 0 -- -- 37
2020-07-28 14:00:00 31.7 10 Sudoeste 16 Sudoeste 0 -- -- 35
2020-07-28 13:00:00 30.2 6 Sudoeste 15 Sudoeste 0 -- -- 38
2020-07-28 12:00:00 28.8 5 Sudoeste 10 Sudoeste 0 -- -- 46
2020-07-28 11:00:00 26.8 5 Este 9 Este 0 -- -- 50
2020-07-28 10:00:00 23.7 4 Este 12 Este 0 -- -- 67
2020-07-28 09:00:00 21.9 4 Este 12 Nordeste 0 -- -- 72
2020-07-28 08:00:00 21.3 6 Nordeste 11 Este 0 -- -- 72
2020-07-28 07:00:00 21 5 Nordeste 16 Este 0 -- -- 72
2020-07-28 06:00:00 21.1 6 Nordeste 15 Este 0 -- -- 76
2020-07-28 05:00:00 21.3 8 Este 12 Este 0 -- -- 68
2020-07-28 04:00:00 21.8 8 Nordeste 15 Nordeste 0 -- -- 65
2020-07-28 03:00:00 22.1 5 Este 22 Este 0 -- -- 65
2020-07-28 02:00:00 21.6 10 Este 18 Este 0 -- -- 67
2020-07-28 01:00:00 23 4 Norte 10 Este 0 -- -- 62
2020-07-28 00:00:00 23.4 5 Este 10 Este 0 -- -- 63
2020-07-27 23:00:00 24.4 5 Este 9 Este 0 -- -- 58
2020-07-27 22:00:00 26.7 2 Sur 8 Sur 0 -- -- 49
2020-07-27 21:00:00 28.2 3 Oeste 11 Sudoeste 0 -- -- 45
2020-07-27 20:00:00 30.1 6 Sudoeste 17 Sudoeste 0 -- -- 42
2020-07-27 19:00:00 32.1 11 Sudoeste 20 Sudoeste 0 -- -- 39
2020-07-27 18:00:00 32.9 13 Sudoeste 27 Sudoeste 0 -- -- 41
2020-07-27 17:00:00 33.1 11 Sudoeste 22 Sur 0 -- -- 42
2020-07-27 16:00:00 32.9 10 Sudoeste 19 Sudoeste 0 -- -- 44
2020-07-27 15:00:00 31.4 10 Sudoeste 17 Sudoeste 0 -- -- 49
2020-07-27 14:00:00 30.3 9 Sudoeste 16 Sudoeste 0 -- -- 51
2020-07-27 13:00:00 29 6 Sur 15 Sudoeste 0 -- -- 53
2020-07-27 12:00:00 28.2 7 Sudoeste 13 Sudoeste 0 -- -- 60
2020-07-27 09:00:00 -- -- -- -- -- -- -- -- --
2020-07-27 08:00:00 19.3 7 Este 15 Nordeste 0 -- -- 86
2020-07-27 07:00:00 18.6 6 Este 11 Este 0 -- -- 89
2020-07-27 06:00:00 18.8 6 Este 11 Este 0 -- -- 89
2020-07-27 05:00:00 18.9 6 Este 10 Este 0 -- -- 90
2020-07-27 04:00:00 19.8 4 Este 8 Este 0 -- -- 86
2020-07-27 03:00:00 20.2 4 Este 7 Este 0 -- -- 87
2020-07-27 02:00:00 21.2 3 Sudoeste 5 Sudoeste 0 -- -- 83
2020-07-27 01:00:00 22 4 Sur 6 Sur 0 -- -- 80
2020-07-27 00:00:00 23.4 5 Sur 10 Oeste 0 -- -- 75
2020-07-26 23:00:00 23.6 7 Oeste 11 Oeste 0 -- -- 73
2020-07-26 22:00:00 24.3 5 Sudoeste 10 Sudoeste 0 -- -- 69
2020-07-26 21:00:00 25.2 8 Oeste 15 Oeste 0 -- -- 67
2020-07-26 20:00:00 26.9 9 Sudoeste 19 Oeste 0 -- -- 61
2020-07-26 19:00:00 28 10 Oeste 18 Sudoeste 0 -- -- 58
2020-07-26 18:00:00 29.2 10 Sudoeste 23 Sur 0 -- -- 54
2020-07-26 17:00:00 31.2 12 Sudoeste 23 Sudoeste 0 -- -- 47
2020-07-26 16:00:00 30.5 11 Sudoeste 24 Sudoeste 0 -- -- 46
2020-07-26 15:00:00 30 8 Sudoeste 20 Sudoeste 0 -- -- 42
2020-07-26 14:00:00 28.9 8 Sudoeste 22 Sudoeste 0 -- -- 49
2020-07-26 13:00:00 28.1 10 Sudoeste 20 Oeste 0 -- -- 49
2020-07-26 12:00:00 27.2 10 Oeste 18 Sudoeste 0 -- -- 53
2020-07-26 11:00:00 26.2 9 Oeste 15 Oeste 0 -- -- 62
2020-07-26 10:00:00 23.9 3 Este 12 Este 0 -- -- 63
2020-07-26 09:00:00 20.6 6 Este 12 Nordeste 0 -- -- 72
2020-07-26 08:00:00 18.8 5 Nordeste 13 Nordeste 0 -- -- 77
2020-07-26 07:00:00 19 6 Este 19 Nordeste 0 -- -- 74
2020-07-26 06:00:00 20.3 12 Este 24 Sudeste 0 -- -- 67
2020-07-26 05:00:00 19.6 11 Nordeste 21 Este 0 -- -- 72
2020-07-26 04:00:00 20.1 7 Este 20 Este 0 -- -- 71
2020-07-26 03:00:00 19.2 9 Este 14 Nordeste 0 -- -- 77
2020-07-26 02:00:00 19.4 5 Este 10 Nordeste 0 -- -- 76
2020-07-26 01:00:00 19.9 5 Nordeste 9 Nordeste 0 -- -- 75
2020-07-26 00:00:00 21.2 4 Este 8 Noroeste 0 -- -- 70
2020-07-25 23:00:00 22.2 5 Noroeste 10 Sudoeste 0 -- -- 65
2020-07-25 22:00:00 23.5 4 Sudoeste 15 Oeste 0 -- -- 61
2020-07-25 21:00:00 25.1 5 Sudoeste 19 Sudoeste 0 -- -- 59
2020-07-25 20:00:00 26.8 10 Sudoeste 24 Sur 0 -- -- 56
2020-07-25 19:00:00 28.3 14 Sudoeste 25 Sudoeste 0 -- -- 54
2020-07-25 18:00:00 29.6 15 Oeste 32 Oeste 0 -- -- 38
2020-07-25 17:00:00 29.5 14 Sudoeste 34 Sudoeste 0 -- -- 47
2020-07-25 16:00:00 28.9 21 Sudoeste 36 Sudoeste 0 -- -- 40
2020-07-25 15:00:00 28.1 17 Sudoeste 31 Sudoeste 0 -- -- 48
2020-07-25 14:00:00 25.3 10 Sudoeste 21 Sudoeste 0 -- -- 58
2020-07-25 13:00:00 24.7 5 Sur 20 Sudoeste 0 -- -- 62
2020-07-25 12:00:00 24.3 7 Sudoeste 17 Oeste 0 -- -- 65
2020-07-25 11:00:00 23.8 5 Sudoeste 14 Sudoeste 0 -- -- 69
2020-07-25 10:00:00 20.7 3 Norte 9 Este 0 -- -- 79
2020-07-25 09:00:00 18.2 5 Este 10 Este 0 -- -- 83
2020-07-25 08:00:00 17.3 6 Este 13 Nordeste 0 -- -- 85
2020-07-25 07:00:00 16.5 8 Este 14 Este 0 -- -- 87
2020-07-25 06:00:00 16.7 6 Este 12 Este 0 -- -- 87
2020-07-25 05:00:00 17.3 5 Este 10 Este 0 -- -- 85
2020-07-25 04:00:00 17.7 5 Nordeste 12 Este 0 -- -- 84
2020-07-25 03:00:00 17.9 6 Este 10 Este 0 -- -- 84
2020-07-25 02:00:00 18.9 4 Este 6 Este 0 -- -- 81
2020-07-25 01:00:00 19.8 3 Nordeste 12 Nordeste 0 -- -- 77
2020-07-25 00:00:00 20.4 6 Este 9 Este 0 -- -- 73
2020-07-24 23:00:00 21.6 3 Nordeste 10 Nordeste 0 -- -- 69
2020-07-24 22:00:00 22.2 4 Nordeste 15 Nordeste 0 -- -- 65
2020-07-24 21:00:00 22.8 7 Nordeste 19 Nordeste 0 -- -- 64
2020-07-24 20:00:00 24.8 9 Nordeste 24 Nordeste 0 -- -- 59
2020-07-24 19:00:00 26.8 12 Sudoeste 30 Sudoeste 0 -- -- 48
2020-07-24 18:00:00 29.2 18 Sudoeste 35 Oeste 0 -- -- 47
2020-07-24 17:00:00 29 24 Oeste 39 Oeste 0 -- -- 41
2020-07-24 16:00:00 28.5 26 Oeste 42 Oeste 0 -- -- 46
2020-07-24 15:00:00 28 24 Sudoeste 37 Sudoeste 0 -- -- 51
2020-07-24 14:00:00 27 22 Sudoeste 34 Oeste 0 -- -- 50
2020-07-24 13:00:00 25.3 5 Oeste 14 Sudoeste 0 -- -- 62
2020-07-24 12:00:00 23.6 10 Sudoeste 15 Sudoeste 0 -- -- 68
2020-07-24 11:00:00 22.4 3 Sudeste 12 Sudoeste 0 -- -- 74
2020-07-24 10:00:00 20.8 5 Este 14 Este 0 -- -- 78
2020-07-24 09:00:00 19.1 5 Este 13 Este 0 -- -- 82
2020-07-24 08:00:00 18.1 3 Oeste 23 Sudeste 0.2 -- -- 85
2020-07-24 07:00:00 17.2 10 Este 19 Este 0.4 -- -- 88
2020-07-24 06:00:00 18.3 6 Este 23 Este 0 -- -- 81
2020-07-24 05:00:00 17.9 14 Este 27 Este 0 -- -- 81
2020-07-24 04:00:00 18.2 13 Nordeste 23 Nordeste 0.2 -- -- 80
2020-07-24 03:00:00 19.1 14 Nordeste 42 Noroeste 0 -- -- 79
2020-07-24 02:00:00 19.9 7 Este 12 Nordeste 0 -- -- 69
2020-07-24 01:00:00 20.8 6 Este 14 Este 0 -- -- 66
2020-07-24 00:00:00 21.2 5 Este 22 Sudeste 0 -- -- 65
2020-07-23 23:00:00 21.8 5 Este 13 Este 0 -- -- 64
2020-07-23 22:00:00 23.3 5 Nordeste 16 Sudeste 0 -- -- 58
2020-07-23 21:00:00 23.4 8 Este 17 Nordeste 0 -- -- 60
2020-07-23 20:00:00 24.6 7 Nordeste 21 Nordeste 0 -- -- 54
2020-07-23 19:00:00 26.4 8 Norte 23 Este 0 -- -- 52
2020-07-23 18:00:00 28.2 8 Este 24 Este 0 -- -- 50
2020-07-23 17:00:00 29.5 10 Sudoeste 26 Sudoeste 0 -- -- 44
2020-07-23 16:00:00 30.3 8 Sudoeste 33 Sudoeste 0 -- -- 44
2020-07-23 15:00:00 31 17 Sudoeste 27 Sudoeste 0 -- -- 38
2020-07-23 14:00:00 30.4 14 Sudoeste 26 Sudoeste 0 -- -- 43
2020-07-23 13:00:00 29.8 12 Sudoeste 22 Sudoeste 0 -- -- 44
2020-07-23 12:00:00 29.2 9 Sudoeste 16 Sudoeste 0 -- -- 47
2020-07-23 11:00:00 28.2 6 Sudoeste 10 Oeste 0 -- -- 43
2020-07-23 10:00:00 25.2 4 Este 12 Nordeste 0 -- -- 54
2020-07-23 09:00:00 21.3 5 Este 9 Este 0 -- -- 67
2020-07-23 08:00:00 20.4 6 Este 10 Nordeste 0 -- -- 66
2020-07-23 07:00:00 20.3 5 Nordeste 15 Este 0 -- -- 64
2020-07-23 06:00:00 20.4 8 Este 15 Este 0 -- -- 62
2020-07-23 05:00:00 20.5 7 Nordeste 15 Nordeste 0 -- -- 60
2020-07-23 04:00:00 20.7 10 Nordeste 27 Nordeste 0 -- -- 60
2020-07-23 03:00:00 20.3 11 Nordeste 20 Nordeste 0 -- -- 62
2020-07-23 02:00:00 19.7 7 Este 12 Este 0 -- -- 67
2020-07-23 01:00:00 20.9 2 Nordeste 13 Este 0 -- -- 62
2020-07-23 00:00:00 21.5 5 Este 13 Este 0 -- -- 60
2020-07-22 23:00:00 22.9 4 Este 8 Este 0 -- -- 53
2020-07-22 22:00:00 24.1 2 Oeste 8 Sur 0 -- -- 47
2020-07-22 21:00:00 25.8 5 Sudoeste 10 Sur 0 -- -- 46
2020-07-22 20:00:00 27.8 9 Sudoeste 15 Oeste 0 -- -- 40
2020-07-22 19:00:00 28.6 9 Sudoeste 17 Oeste 0 -- -- 41
2020-07-22 18:00:00 30.5 13 Sudoeste 22 Sudoeste 0 -- -- 35
2020-07-22 17:00:00 30.8 11 Sudoeste 24 Oeste 0 -- -- 33
2020-07-22 16:00:00 30.9 14 Sudoeste 24 Sudoeste 0 -- -- 33
2020-07-22 15:00:00 31.1 6 Sudoeste 16 Sudoeste 0 -- -- 30
2020-07-22 14:00:00 29.8 8 Sur 21 Sudoeste 0 -- -- 31
2020-07-22 13:00:00 29 12 Sudoeste 19 Sudoeste 0 -- -- 42
2020-07-22 12:00:00 27 11 Sudoeste 16 Sudoeste 0 -- -- 46
2020-07-22 11:00:00 24.5 5 Sur 10 Este 0 -- -- 50
2020-07-22 10:00:00 23.1 5 Nordeste 26 Nordeste 0 -- -- 62
2020-07-22 09:00:00 20.3 5 Nordeste 13 Este 0 -- -- 70
2020-07-22 08:00:00 18.5 5 Este 7 Este 0 -- -- 75
2020-07-22 07:00:00 18.3 7 Nordeste 15 Este 0 -- -- 72
2020-07-22 06:00:00 18.8 9 Este 16 Nordeste 0 -- -- 69
2020-07-22 05:00:00 19 8 Este 15 Este 0 -- -- 69
2020-07-22 04:00:00 18.7 6 Este 14 Nordeste 0 -- -- 73
2020-07-22 03:00:00 19 8 Este 15 Nordeste 0 -- -- 73
2020-07-22 02:00:00 19.5 5 Nordeste 11 Este 0 -- -- 73
2020-07-22 01:00:00 20.6 4 Este 9 Este 0 -- -- 69
2020-07-22 00:00:00 21.4 4 Este 11 Este 0 -- -- 67
2020-07-21 23:00:00 22.4 4 Este 7 Este 0 -- -- 65
2020-07-21 22:00:00 24.2 3 Este 7 Sudoeste 0 -- -- 58
2020-07-21 21:00:00 25.7 5 Sudoeste 14 Sudoeste 0 -- -- 54
2020-07-21 20:00:00 27.3 10 Oeste 19 Sudoeste 0 -- -- 51
2020-07-21 19:00:00 29.8 10 Sudoeste 17 Sudoeste 0 -- -- 45
2020-07-21 18:00:00 30.4 10 Sudoeste 20 Sur 0 -- -- 43
2020-07-21 17:00:00 31.1 7 Sudoeste 22 Sudoeste 0 -- -- 40
2020-07-21 16:00:00 30.7 11 Sudoeste 21 Sudoeste 0 -- -- 40
2020-07-21 15:00:00 30.3 8 Sudoeste 21 Sudoeste 0 -- -- 44
2020-07-21 14:00:00 29.4 8 Sudoeste 18 Sudoeste 0 -- -- 44
2020-07-21 13:00:00 28.7 7 Sudoeste 14 Sudoeste 0 -- -- 50
2020-07-21 12:00:00 27.5 7 Sudoeste 16 Sudoeste 0 -- -- 51
2020-07-21 11:00:00 26 5 Sudoeste 10 Sur 0 -- -- 55
2020-07-21 10:00:00 23 4 Este 10 Este 0 -- -- 61
2020-07-21 09:00:00 19.7 6 Este 14 Nordeste 0 -- -- 72
2020-07-21 08:00:00 17.8 6 Este 16 Este 0 -- -- 76
2020-07-21 07:00:00 16.7 8 Este 14 Este 0 -- -- 81
2020-07-21 06:00:00 16.8 8 Este 13 Nordeste 0 -- -- 81
2020-07-21 05:00:00 17.5 8 Este 13 Este 0 -- -- 79
2020-07-21 04:00:00 17.8 6 Este 13 Este 0 -- -- 80
2020-07-21 03:00:00 18.5 5 Este 15 Nordeste 0 -- -- 78
2020-07-21 02:00:00 18.8 7 Este 12 Este 0 -- -- 78
2020-07-21 01:00:00 19.5 6 Este 10 Nordeste 0 -- -- 77
2020-07-21 00:00:00 20.5 7 Nordeste 13 Nordeste 0 -- -- 73
2020-07-20 23:00:00 21.4 6 Este 13 Este 0 -- -- 71
2020-07-20 22:00:00 22.9 3 Nordeste 7 Este 0 -- -- 64
2020-07-20 21:00:00 24.5 3 Sur 11 Sudoeste 0 -- -- 59
2020-07-20 20:00:00 25.2 7 Sudoeste 14 Sudoeste 0 -- -- 55
2020-07-20 19:00:00 26.8 10 Sudoeste 21 Sudoeste 0 -- -- 52
2020-07-20 18:00:00 28.2 10 Sudoeste 16 Sudoeste 0 -- -- 49
2020-07-20 17:00:00 28 9 Sudoeste 25 Oeste 0 -- -- 49
2020-07-20 16:00:00 28.2 11 Oeste 21 Oeste 0 -- -- 48
2020-07-20 15:00:00 27.2 5 Sudoeste 8 Sur 0 -- -- 48
2020-07-20 14:00:00 25.6 3 Nordeste 8 Nordeste 0 -- -- 52
2020-07-20 13:00:00 24.8 4 Sur 10 Sudoeste 0 -- -- 54
2020-07-20 12:00:00 23.1 3 Nordeste 6 Este 0 -- -- 68
2020-07-20 11:00:00 22.3 3 Noroeste 5 Oeste 0 -- -- 73
2020-07-20 10:00:00 21.3 3 Este 8 Nordeste 0 -- -- 74
2020-07-20 09:00:00 19.4 5 Este 9 Nordeste 0 -- -- 80
2020-07-20 08:00:00 18.3 6 Este 9 Nordeste 0 -- -- 82
2020-07-20 07:00:00 17.4 5 Este 12 Este 0 -- -- 83
2020-07-20 06:00:00 17.5 8 Este 14 Este 0 -- -- 83
2020-07-20 05:00:00 17.6 8 Este 12 Este 0 -- -- 83
2020-07-20 04:00:00 18.6 5 Este 13 Este 0 -- -- 79
2020-07-20 03:00:00 18.9 4 Nordeste 14 Nordeste 0 -- -- 78
2020-07-20 02:00:00 19.9 11 Nordeste 19 Nordeste 0 -- -- 74
2020-07-20 01:00:00 19.8 5 Este 10 Este 0 -- -- 75
2020-07-20 00:00:00 20.8 4 Este 8 Este 0 -- -- 69
2020-07-19 23:00:00 22.4 2 Nordeste 6 Sur 0 -- -- 60
2020-07-19 22:00:00 23.6 3 Este 9 Sudoeste 0 -- -- 60
2020-07-19 21:00:00 24.7 7 Sudoeste 11 Sudoeste 0 -- -- 58
2020-07-19 20:00:00 26.7 7 Sudoeste 22 Sudoeste 0 -- -- 51
2020-07-19 19:00:00 28.4 11 Sudoeste 24 Oeste 0 -- -- 49
2020-07-19 18:00:00 29.1 14 Sudoeste 25 Sur 0 -- -- 47
2020-07-19 17:00:00 29.7 12 Sudoeste 25 Sur 0 -- -- 46
2020-07-19 16:00:00 30 12 Sudoeste 22 Oeste 0 -- -- 46
2020-07-19 15:00:00 29.7 9 Sudoeste 20 Sudoeste 0 -- -- 49
2020-07-19 14:00:00 28.3 7 Sur 18 Sudoeste 0 -- -- 52
2020-07-19 13:00:00 27.2 8 Sudoeste 19 Sudoeste 0 -- -- 53
2020-07-19 12:00:00 26.6 6 Sur 16 Sudoeste 0 -- -- 55
2020-07-19 11:00:00 25 6 Sudoeste 12 Sudoeste 0 -- -- 61
2020-07-19 10:00:00 22.4 5 Sudoeste 10 Este 0 -- -- 73
2020-07-19 09:00:00 20 5 Este 13 Este 0 -- -- 80
2020-07-19 08:00:00 17.9 6 Este 12 Este 0 -- -- 87
2020-07-19 07:00:00 17.1 8 Este 13 Este 0 -- -- 89
2020-07-19 06:00:00 17.3 6 Este 12 Este 0 -- -- 90
2020-07-19 05:00:00 17.6 5 Nordeste 9 Este 0 -- -- 90
2020-07-19 04:00:00 18.2 4 Nordeste 9 Este 0 -- -- 90
2020-07-19 03:00:00 18.5 3 Este 5 Este 0 -- -- 88
2020-07-19 02:00:00 19.3 3 Oeste 6 Oeste 0 -- -- 84
2020-07-19 01:00:00 20 2 Este 5 Nordeste 0 -- -- 82
2020-07-19 00:00:00 20.6 3 Sudoeste 9 Sudoeste 0 -- -- 80
2020-07-18 23:00:00 20.5 4 Sudoeste 8 Sudoeste 0 -- -- 80
2020-07-18 22:00:00 21.5 6 Sudoeste 16 Oeste 0 -- -- 76
2020-07-18 21:00:00 23 9 Sudoeste 19 Sudoeste 0 -- -- 67
2020-07-18 20:00:00 25.1 11 Sudoeste 19 Sudoeste 0 -- -- 61
2020-07-18 19:00:00 26.4 14 Oeste 25 Sudoeste 0 -- -- 60
2020-07-18 18:00:00 28.3 5 Sudoeste 17 Sudoeste 0 -- -- 46
2020-07-18 17:00:00 28 8 Sudoeste 18 Sudoeste 0 -- -- 48
2020-07-18 16:00:00 27.7 6 Sur 21 Sudoeste 0 -- -- 49
2020-07-18 15:00:00 26.7 6 Sur 17 Sudoeste 0 -- -- 48
2020-07-18 14:00:00 25.7 7 Sudoeste 17 Sudoeste 0 -- -- 55
2020-07-18 13:00:00 24.9 6 Sudoeste 15 Oeste 0 -- -- 62
2020-07-18 12:00:00 24 8 Sudoeste 16 Sudoeste 0 -- -- 62
2020-07-18 11:00:00 21.1 4 Nordeste 11 Sur 0 -- -- 72
2020-07-18 10:00:00 19.3 5 Sudeste 12 Sudoeste 0 -- -- 77
2020-07-18 09:00:00 17.9 4 Este 9 Nordeste 0 -- -- 78
2020-07-18 08:00:00 16.5 4 Este 8 Este 0 -- -- 85
2020-07-18 07:00:00 16.3 4 Este 9 Nordeste 0 -- -- 89
2020-07-18 06:00:00 16.9 3 Nordeste 6 Noroeste 0 -- -- 84
2020-07-18 05:00:00 17.7 0 Calma 5 Este 0 -- -- 86
2020-07-18 04:00:00 18.2 2 Sur 11 Sudoeste 0 -- -- 84
2020-07-18 03:00:00 18.7 7 Sudoeste 12 Sudoeste 0 -- -- 83
2020-07-18 02:00:00 18.8 6 Sudoeste 10 Sudoeste 0 -- -- 87
2020-07-18 01:00:00 19.3 5 Sudoeste 11 Oeste 0 -- -- 85
2020-07-18 00:00:00 20.1 8 Oeste 11 Sudoeste 0 -- -- 82
2020-07-17 23:00:00 20.6 5 Sudoeste 11 Oeste 0 -- -- 82
2020-07-17 22:00:00 21.4 6 Sudoeste 12 Sudoeste 0 -- -- 77
2020-07-17 21:00:00 22.6 3 Sudoeste 17 Sudoeste 0 -- -- 70
2020-07-17 20:00:00 24 7 Sudoeste 18 Oeste 0 -- -- 63
2020-07-17 19:00:00 25.1 10 Sudoeste 18 Sudoeste 0 -- -- 61
2020-07-17 18:00:00 26.1 9 Oeste 21 Oeste 0 -- -- 51
2020-07-17 17:00:00 26.6 10 Oeste 26 Sudoeste 0 -- -- 54
2020-07-17 16:00:00 26 14 Sudoeste 22 Sudoeste 0 -- -- 54
2020-07-17 15:00:00 25.9 13 Sudoeste 26 Sudoeste 0 -- -- 55
2020-07-17 14:00:00 24.9 14 Sudoeste 22 Sudoeste 0 -- -- 56
2020-07-17 13:00:00 25.1 7 Sur 18 Sudoeste 0 -- -- 57
2020-07-17 12:00:00 23.6 6 Sudoeste 15 Sudoeste 0 -- -- 63
2020-07-17 11:00:00 22.5 5 Sudoeste 12 Sudoeste 0 -- -- 67
2020-07-17 10:00:00 19.9 6 Sur 13 Sur 0 -- -- 81
2020-07-17 09:00:00 17.7 4 Sur 9 Sur 0 -- -- 89
2020-07-17 08:00:00 17.5 5 Sudoeste 10 Sur 0 -- -- 92
2020-07-17 07:00:00 17.3 4 Sudeste 9 Sudoeste 0 -- -- 93
2020-07-17 06:00:00 17.5 6 Sudoeste 10 Sur 0 -- -- 92
2020-07-17 05:00:00 18 4 Sudoeste 13 Sur 0 -- -- 94
2020-07-17 04:00:00 18.3 5 Sudoeste 12 Sur 0 -- -- 93
2020-07-17 03:00:00 18.5 5 Sudoeste 12 Sudoeste 0 -- -- 92
2020-07-17 02:00:00 18.8 6 Sudoeste 10 Sudoeste 0 -- -- 89
2020-07-17 01:00:00 19.1 4 Sudoeste 11 Oeste 0 -- -- 87
2020-07-17 00:00:00 19.4 7 Sudoeste 12 Sudoeste 0 -- -- 87
2020-07-16 23:00:00 19.8 6 Sudoeste 13 Oeste 0 -- -- 85
2020-07-16 22:00:00 20.4 8 Sudoeste 15 Sudoeste 0 -- -- 82
2020-07-16 21:00:00 21.6 9 Sudoeste 16 Sudoeste 0 -- -- 76
2020-07-16 20:00:00 23.2 8 Sudoeste 18 Sudoeste 0 -- -- 69
2020-07-16 19:00:00 25.3 6 Sudoeste 24 Sudoeste 0 -- -- 62
2020-07-16 18:00:00 25.5 12 Sudoeste 24 Sudoeste 0 -- -- 51
2020-07-16 17:00:00 26.1 16 Oeste 28 Sudoeste 0 -- -- 51
2020-07-16 16:00:00 25.8 14 Sudoeste 29 Oeste 0 -- -- 53
2020-07-16 15:00:00 25 15 Sudoeste 27 Sudoeste 0 -- -- 56
2020-07-16 14:00:00 24.4 15 Sudoeste 26 Sudoeste 0 -- -- 54
2020-07-16 13:00:00 23.6 8 Sudoeste 22 Sur 0 -- -- 58
2020-07-16 12:00:00 22.3 6 Sur 19 Sudoeste 0 -- -- 56
2020-07-16 11:00:00 20.2 7 Sudoeste 13 Sudoeste 0 -- -- 72
2020-07-16 10:00:00 17.6 4 Oeste 9 Sudoeste 0 -- -- 82
2020-07-16 09:00:00 16.4 8 Sudoeste 10 Sudoeste 0 -- -- 85
2020-07-16 08:00:00 16.2 4 Sudoeste 7 Sur 0 -- -- 92
2020-07-16 07:00:00 16.2 3 Oeste 6 Sudoeste 0 -- -- 93
2020-07-16 06:00:00 16.6 3 Nordeste 11 Sur 0 -- -- 93
2020-07-16 05:00:00 16.8 3 Oeste 12 Sudoeste 0 -- -- 94
2020-07-16 04:00:00 17.1 5 Sudoeste 10 Sur 0 -- -- 92
2020-07-16 03:00:00 17.4 3 Sur 5 Sudoeste 0 -- -- 90
2020-07-16 02:00:00 17.7 2 Sudoeste 6 Sudoeste 0 -- -- 88
2020-07-16 01:00:00 18 4 Oeste 10 Oeste 0 -- -- 85
2020-07-16 00:00:00 18.5 5 Oeste 8 Sudoeste 0 -- -- 83